createdAt,value
2022-11-22T00:01:49.048Z,5.10
2022-11-22T00:04:16.226Z,4.18
2022-11-22T00:06:43.314Z,5.43
2022-11-22T00:09:10.879Z,3.17
2022-11-22T00:11:37.997Z,3.38
2022-11-22T00:14:05.179Z,3.17
2022-11-22T00:16:34.504Z,3.83
2022-11-22T00:19:01.605Z,3.40
2022-11-22T00:21:28.743Z,3.60
2022-11-22T00:23:57.403Z,4.28
2022-11-22T00:26:25.024Z,2.90
2022-11-22T00:28:54.623Z,2.83
2022-11-22T00:31:24.766Z,3.30
2022-11-22T00:33:51.916Z,4.43
2022-11-22T00:36:19.066Z,4.57
2022-11-22T00:38:46.168Z,3.28
2022-11-22T00:41:13.295Z,4.50
2022-11-22T00:43:40.404Z,3.30
2022-11-22T00:46:07.616Z,2.42
2022-11-22T00:48:34.762Z,4.22
2022-11-22T00:51:01.883Z,5.13
2022-11-22T00:53:29.041Z,3.13
2022-11-22T00:55:56.171Z,3.95
2022-11-22T00:58:23.278Z,2.20
2022-11-22T01:00:55.067Z,2.53
2022-11-22T01:03:23.897Z,3.60
2022-11-22T01:05:51.018Z,1.92
2022-11-22T01:08:18.171Z,3.63
2022-11-22T01:10:45.314Z,3.30
2022-11-22T01:13:12.610Z,2.90
2022-11-22T01:15:40.531Z,1.90
2022-11-22T01:18:07.657Z,3.88
2022-11-22T01:20:35.240Z,3.72
2022-11-22T01:23:02.862Z,4.47
2022-11-22T01:25:29.987Z,2.95
2022-11-22T01:27:57.094Z,2.75
2022-11-22T01:30:24.212Z,4.70
2022-11-22T01:32:51.309Z,3.65
2022-11-22T01:35:18.552Z,3.80
2022-11-22T01:37:45.654Z,2.43
2022-11-22T01:40:12.847Z,4.28
2022-11-22T01:43:00.070Z,3.58
2022-11-22T01:45:30.246Z,5.22
2022-11-22T01:48:03.351Z,2.95
2022-11-22T01:50:33.883Z,3.10
2022-11-22T01:53:03.352Z,4.72
2022-11-22T01:55:30.861Z,3.10
2022-11-22T01:57:58.759Z,2.65
2022-11-22T02:00:26.191Z,4.63
2022-11-22T02:02:57.047Z,3.80
2022-11-22T02:05:26.774Z,3.00
2022-11-22T02:08:06.623Z,3.92
2022-11-22T02:10:35.917Z,3.05
2022-11-22T02:13:03.335Z,2.63
2022-11-22T02:15:30.507Z,2.33
2022-11-22T02:17:58.436Z,3.00
2022-11-22T02:20:25.710Z,3.25
2022-11-22T02:22:55.879Z,2.90
2022-11-22T02:25:38.001Z,2.72
2022-11-22T02:28:05.611Z,3.30
2022-11-22T02:30:32.816Z,2.97
2022-11-22T02:32:59.942Z,2.80
2022-11-22T02:35:27.927Z,3.22
2022-11-22T02:37:57.464Z,2.97
2022-11-22T02:40:24.904Z,4.90
2022-11-22T02:42:56.197Z,5.43
2022-11-22T02:45:23.310Z,3.47
2022-11-22T02:47:50.642Z,2.97
2022-11-22T02:50:17.842Z,3.63
2022-11-22T02:52:44.966Z,2.87
2022-11-22T02:55:12.241Z,1.83
2022-11-22T02:57:39.446Z,2.43
2022-11-22T03:00:06.960Z,3.37
2022-11-22T03:02:34.105Z,3.95
2022-11-22T03:05:01.224Z,3.08
2022-11-22T03:07:28.421Z,3.35
2022-11-22T03:09:55.604Z,2.93
2022-11-22T03:12:23.194Z,4.15
2022-11-22T03:14:50.294Z,3.30
2022-11-22T03:17:17.465Z,2.85
2022-11-22T03:19:44.576Z,2.80
2022-11-22T03:22:11.891Z,4.70
2022-11-22T03:24:38.999Z,2.17
2022-11-22T03:27:06.148Z,3.47
2022-11-22T03:29:33.260Z,2.70
2022-11-22T03:32:00.385Z,3.65
2022-11-22T03:34:27.550Z,2.67
2022-11-22T03:36:54.669Z,3.72
2022-11-22T03:39:21.774Z,3.28
2022-11-22T03:41:49.045Z,5.70
2022-11-22T03:44:16.143Z,3.90
2022-11-22T03:46:43.287Z,3.38
2022-11-22T03:49:12.020Z,3.95
2022-11-22T03:51:39.139Z,2.75
2022-11-22T03:54:06.306Z,2.72
2022-11-22T03:56:33.470Z,2.63
2022-11-22T03:59:00.686Z,2.15
2022-11-22T04:01:27.848Z,2.57
2022-11-22T04:03:55.038Z,2.70
2022-11-22T04:06:22.148Z,2.63
2022-11-22T04:08:49.403Z,2.38
2022-11-22T04:11:16.511Z,3.20
2022-11-22T04:14:02.513Z,2.30
2022-11-22T04:16:31.855Z,3.28
2022-11-22T04:18:59.010Z,3.42
2022-11-22T04:21:35.072Z,2.35
2022-11-22T04:24:22.230Z,2.83
2022-11-22T04:26:49.783Z,3.13
2022-11-22T04:29:17.633Z,3.08
2022-11-22T04:32:03.792Z,3.53
2022-11-22T04:34:31.222Z,3.13
2022-11-22T04:36:58.386Z,2.47
2022-11-22T04:39:25.507Z,3.45
2022-11-22T04:42:14.898Z,3.38
2022-11-22T04:44:42.757Z,2.97
2022-11-22T04:47:10.213Z,3.08
2022-11-22T04:49:37.730Z,2.40
2022-11-22T04:52:24.424Z,2.92
2022-11-22T04:54:51.979Z,2.80
2022-11-22T04:57:21.633Z,2.78
2022-11-22T04:59:48.739Z,2.53
2022-11-22T05:02:15.857Z,1.85
2022-11-22T05:04:46.368Z,1.92
2022-11-22T05:07:17.553Z,2.45
2022-11-22T05:09:44.717Z,2.53
2022-11-22T05:12:11.834Z,2.40
2022-11-22T05:14:38.942Z,3.33
2022-11-22T05:17:06.047Z,3.00
2022-11-22T05:19:33.158Z,3.78
2022-11-22T05:22:00.354Z,3.40
2022-11-22T05:24:27.547Z,2.47
2022-11-22T05:26:54.667Z,3.30
2022-11-22T05:29:21.814Z,4.32
2022-11-22T05:31:51.449Z,3.30
2022-11-22T05:34:18.732Z,2.67
2022-11-22T05:36:45.993Z,2.70
2022-11-22T05:39:13.118Z,3.20
2022-11-22T05:41:55.683Z,2.60
2022-11-22T05:44:24.025Z,2.58
2022-11-22T05:46:51.198Z,2.42
2022-11-22T05:49:18.339Z,2.92
2022-11-22T05:51:45.543Z,2.25
2022-11-22T05:54:12.652Z,2.77
2022-11-22T05:56:42.237Z,2.35
2022-11-22T05:59:09.435Z,3.38
2022-11-22T06:01:36.550Z,2.05
2022-11-22T06:04:04.248Z,2.47
2022-11-22T06:06:31.364Z,1.85
2022-11-22T06:08:59.363Z,2.20
2022-11-22T06:13:57.625Z,2.72
2022-11-22T06:16:25.025Z,3.10
2022-11-22T06:18:52.281Z,3.25
2022-11-22T06:21:23.235Z,4.00
2022-11-22T06:23:50.764Z,2.30
2022-11-22T06:26:19.014Z,3.63
2022-11-22T06:28:46.762Z,2.63
2022-11-22T06:31:15.241Z,2.72
2022-11-22T06:33:42.656Z,4.38
2022-11-22T06:36:11.113Z,2.40
2022-11-22T06:38:38.409Z,2.67
2022-11-22T06:41:06.798Z,2.07
2022-11-22T06:43:34.551Z,2.60
2022-11-22T06:46:02.227Z,4.93
2022-11-22T06:48:33.227Z,2.67
2022-11-22T06:51:05.256Z,3.35
2022-11-22T06:53:46.995Z,1.52
2022-11-22T06:56:15.472Z,2.17
2022-11-22T06:58:43.355Z,3.33
2022-11-22T07:01:22.605Z,1.85
2022-11-22T07:03:50.519Z,3.33
2022-11-22T07:06:18.855Z,1.80
2022-11-22T07:08:46.701Z,2.85
2022-11-22T07:11:15.591Z,5.93
2022-11-22T07:13:42.795Z,2.38
2022-11-22T07:16:11.958Z,2.72
2022-11-22T07:18:39.297Z,1.35
2022-11-22T07:21:13.254Z,2.33
2022-11-22T07:23:41.911Z,1.70
2022-11-22T07:28:36.541Z,2.43
2022-11-22T07:31:04.888Z,2.25
2022-11-22T07:33:32.449Z,1.80
2022-11-22T07:36:06.648Z,3.17
2022-11-22T07:38:34.009Z,1.88
2022-11-22T07:41:01.250Z,3.63
2022-11-22T07:43:28.868Z,2.47
2022-11-22T07:45:59.867Z,2.40
2022-11-22T07:48:26.986Z,4.47
2022-11-22T07:50:54.134Z,3.60
2022-11-22T07:53:21.320Z,2.80
2022-11-22T07:55:48.424Z,5.00
2022-11-22T07:58:15.589Z,2.97
2022-11-22T08:00:42.759Z,2.83
2022-11-22T08:03:13.141Z,1.80
2022-11-22T08:05:43.119Z,1.40
2022-11-22T08:08:10.235Z,2.53
2022-11-22T08:10:39.861Z,3.42
2022-11-22T08:13:07.074Z,2.70
2022-11-22T08:15:34.192Z,2.55
2022-11-22T08:18:01.324Z,1.73
2022-11-22T08:20:28.474Z,2.92
2022-11-22T08:22:55.594Z,3.47
2022-11-22T08:25:22.735Z,2.28
2022-11-22T08:27:49.879Z,2.13
2022-11-22T08:30:17.009Z,2.45
2022-11-22T08:32:44.141Z,2.63
2022-11-22T08:35:11.268Z,4.32
2022-11-22T08:37:38.443Z,2.38
2022-11-22T08:40:06.018Z,2.00
2022-11-22T08:42:33.182Z,3.65
2022-11-22T08:45:00.528Z,1.70
2022-11-22T08:47:27.629Z,2.03
2022-11-22T08:49:54.770Z,3.40
2022-11-22T08:52:21.861Z,2.00
2022-11-22T08:54:49.017Z,1.60
2022-11-22T08:57:16.229Z,1.90
2022-11-22T08:59:43.375Z,1.97
2022-11-22T09:02:10.941Z,2.45
2022-11-22T09:04:38.064Z,5.07
2022-11-22T09:09:52.377Z,4.72
2022-11-22T09:12:19.544Z,2.80
2022-11-22T09:14:46.663Z,3.75
2022-11-22T09:17:17.792Z,2.15
2022-11-22T09:19:45.956Z,2.47
2022-11-22T09:22:13.564Z,1.83
2022-11-22T09:24:40.682Z,3.10
2022-11-22T09:27:07.903Z,3.58
2022-11-22T09:29:35.068Z,2.27
2022-11-22T09:32:03.415Z,2.00
2022-11-22T09:34:30.581Z,1.83
2022-11-22T09:36:57.694Z,2.60
2022-11-22T09:39:24.811Z,2.38
2022-11-22T09:41:58.137Z,2.25
2022-11-22T09:44:31.201Z,2.40
2022-11-22T09:47:13.385Z,2.80
2022-11-22T09:49:49.511Z,2.72
2022-11-22T09:52:45.866Z,1.67
2022-11-22T09:55:12.988Z,1.92
2022-11-22T09:57:45.386Z,3.55
2022-11-22T10:00:20.857Z,2.17
2022-11-22T10:03:10.984Z,2.53
2022-11-22T10:05:58.776Z,2.33
2022-11-22T10:08:25.885Z,1.60
2022-11-22T10:10:54.485Z,3.35
2022-11-22T10:13:30.515Z,1.45
2022-11-22T10:16:16.572Z,2.30
2022-11-22T10:18:43.722Z,1.52
2022-11-22T10:21:13.080Z,1.90
2022-11-22T10:23:41.589Z,1.83
2022-11-22T10:26:28.932Z,2.17
2022-11-22T10:29:02.269Z,2.22
2022-11-22T10:31:55.689Z,1.95
2022-11-22T10:34:43.062Z,1.80
2022-11-22T10:37:13.192Z,1.58
2022-11-22T10:40:06.004Z,1.85
2022-11-22T10:42:51.883Z,3.08
2022-11-22T10:45:24.071Z,1.85
2022-11-22T10:48:01.923Z,1.40
2022-11-22T10:50:29.054Z,1.70
2022-11-22T10:53:25.478Z,1.58
2022-11-22T10:55:55.770Z,1.45
2022-11-22T10:58:31.954Z,1.90
2022-11-22T11:01:03.550Z,1.63
2022-11-22T11:03:35.802Z,1.25
2022-11-22T11:07:04.518Z,2.15
2022-11-22T11:12:28.764Z,2.42
2022-11-22T11:15:07.156Z,2.80
2022-11-22T11:17:38.554Z,1.85
2022-11-22T11:20:11.911Z,1.90
2022-11-22T11:27:54.314Z,1.83
2022-11-22T11:30:21.570Z,2.42
2022-11-22T11:32:55.877Z,1.63
2022-11-22T11:35:25.256Z,1.52
2022-11-22T11:37:52.414Z,1.42
2022-11-22T11:40:33.185Z,1.65
2022-11-22T11:43:19.229Z,1.70
2022-11-22T11:45:46.464Z,1.30
2022-11-22T11:48:29.853Z,1.37
2022-11-22T11:51:07.410Z,1.88
2022-11-22T11:53:34.981Z,1.85
2022-11-22T11:56:20.943Z,2.05
2022-11-22T11:58:56.081Z,1.45
2022-11-22T12:01:23.846Z,1.73
2022-11-22T12:03:52.058Z,1.10
2022-11-22T12:06:19.238Z,1.00
2022-11-22T12:08:46.394Z,1.63
2022-11-22T12:11:17.166Z,4.40
2022-11-22T12:16:49.085Z,1.15
2022-11-22T12:19:28.718Z,1.10
2022-11-22T12:22:29.413Z,1.38
2022-11-22T12:25:32.535Z,1.30
2022-11-22T12:28:03.794Z,1.73
2022-11-22T12:30:34.714Z,1.00
2022-11-22T12:33:03.494Z,1.60
2022-11-22T12:35:34.521Z,2.35
2022-11-22T12:38:09.010Z,1.10
2022-11-22T12:40:39.004Z,1.08
2022-11-22T12:43:08.992Z,1.15
2022-11-22T12:45:44.677Z,2.33
2022-11-22T12:48:38.218Z,1.08
2022-11-22T12:51:19.622Z,2.15
2022-11-22T12:53:47.672Z,1.48
2022-11-22T12:56:15.233Z,1.50
2022-11-22T12:58:47.442Z,1.50
2022-11-22T13:01:33.272Z,1.02
2022-11-22T13:04:20.725Z,1.45
2022-11-22T13:06:57.496Z,1.08
2022-11-22T13:09:27.756Z,2.10
2022-11-22T13:12:06.506Z,2.78
2022-11-22T13:14:38.955Z,1.70
2022-11-22T13:17:09.852Z,5.00
2022-11-22T13:20:06.825Z,2.97
2022-11-22T13:22:57.203Z,5.07
2022-11-22T13:25:24.341Z,7.85
2022-11-22T13:27:52.545Z,6.22
2022-11-22T13:32:50.513Z,4.88
2022-11-22T13:35:18.070Z,3.13
2022-11-22T13:37:46.645Z,2.63
2022-11-22T13:40:16.528Z,2.33
2022-11-22T13:42:43.969Z,2.25
2022-11-22T13:45:21.663Z,4.63
2022-11-22T13:47:49.620Z,11.13
2022-11-22T13:50:35.361Z,17.13
2022-11-22T13:53:17.779Z,15.85
2022-11-22T13:55:45.101Z,12.00
2022-11-22T13:58:24.408Z,11.07
2022-11-22T14:00:59.870Z,7.38
2022-11-22T14:03:33.069Z,6.57
2022-11-22T14:06:00.378Z,5.97
2022-11-22T14:08:27.492Z,7.83
2022-11-22T14:10:54.608Z,5.60
2022-11-22T14:13:42.395Z,7.28
2022-11-22T14:18:40.964Z,4.70
2022-11-22T14:21:11.231Z,5.93
2022-11-22T14:23:41.450Z,6.50
2022-11-22T14:26:08.559Z,6.38
2022-11-22T14:28:35.721Z,5.78
2022-11-22T14:31:12.748Z,3.23
2022-11-22T14:33:59.807Z,2.72
2022-11-22T14:36:26.986Z,3.42
2022-11-22T14:38:54.076Z,3.17
2022-11-22T14:41:27.090Z,4.15
2022-11-22T14:43:55.158Z,3.35
2022-11-22T14:46:51.218Z,5.43
2022-11-22T14:49:29.629Z,3.47
2022-11-22T14:51:58.117Z,4.47
2022-11-22T14:56:57.577Z,2.70
2022-11-22T14:59:35.379Z,3.55
2022-11-22T15:02:23.796Z,4.63
2022-11-22T15:09:16.115Z,3.22
2022-11-22T15:09:19.920Z,5.05
2022-11-22T15:10:44.385Z,3.13
2022-11-22T15:13:16.769Z,4.47
2022-11-22T15:58:24.921Z,9.70
2022-11-22T16:00:52.140Z,10.82
2022-11-22T16:03:40.466Z,14.05
2022-11-22T16:06:12.237Z,9.98
2022-11-22T16:08:39.785Z,7.55
2022-11-22T16:11:07.064Z,8.77
2022-11-22T16:13:35.963Z,5.83
2022-11-22T16:16:12.575Z,8.10
2022-11-22T16:18:40.527Z,3.72
2022-11-22T16:21:07.658Z,8.40
2022-11-22T16:23:37.261Z,11.40
2022-11-22T16:26:29.320Z,5.82
2022-11-22T16:29:11.531Z,4.78
2022-11-22T16:31:39.020Z,5.28
2022-11-22T16:34:13.541Z,5.47
2022-11-22T16:36:43.210Z,7.47
2022-11-22T16:39:10.328Z,5.25
2022-11-22T16:41:37.489Z,10.40
2022-11-22T16:44:11.593Z,5.82
2022-11-22T16:46:39.755Z,7.28
2022-11-22T16:51:34.356Z,4.37
2022-11-22T16:54:06.577Z,4.03
2022-11-22T16:56:34.136Z,4.95
2022-11-22T16:59:01.265Z,3.38
2022-11-22T17:01:32.730Z,5.55
2022-11-22T17:04:01.025Z,7.20
2022-11-22T17:06:28.897Z,5.88
2022-11-22T17:08:56.921Z,7.38
2022-11-22T17:11:28.107Z,3.83
2022-11-22T17:13:55.232Z,3.72
2022-11-22T17:16:42.311Z,5.53
2022-11-22T17:19:30.361Z,4.22
2022-11-22T17:21:57.125Z,4.95
2022-11-22T17:24:44.194Z,5.47
2022-11-22T17:27:13.852Z,2.55
2022-11-22T17:29:56.503Z,3.85
2022-11-22T17:32:23.631Z,3.58
2022-11-22T17:34:50.796Z,2.85
2022-11-22T17:37:17.936Z,2.88
2022-11-22T17:39:45.076Z,3.38
2022-11-22T17:42:12.232Z,6.03
2022-11-22T17:44:39.396Z,2.22
2022-11-22T17:47:06.531Z,6.25
2022-11-22T17:49:33.862Z,3.80
2022-11-22T17:52:01.227Z,5.00
2022-11-22T17:54:46.302Z,4.28
2022-11-22T17:57:13.503Z,4.25
2022-11-22T17:59:41.932Z,5.32
2022-11-22T18:02:12.908Z,3.40
2022-11-22T18:04:40.144Z,6.03
2022-11-22T18:07:07.320Z,5.67
2022-11-22T18:09:34.733Z,3.10
2022-11-22T18:12:02.087Z,5.22
2022-11-22T18:14:30.642Z,4.47
2022-11-22T18:17:00.299Z,3.67
2022-11-22T18:19:27.439Z,3.55
2022-11-22T18:21:54.587Z,2.47
2022-11-22T18:24:21.772Z,2.70
2022-11-22T18:26:49.670Z,3.83
2022-11-22T18:32:05.418Z,4.20
2022-11-22T18:34:32.538Z,4.20
2022-11-22T18:37:02.597Z,2.75
2022-11-22T18:39:36.108Z,3.70
2022-11-22T18:42:04.355Z,3.20
2022-11-22T18:44:31.592Z,3.35
2022-11-22T18:46:58.775Z,5.27
2022-11-22T18:49:25.974Z,3.28
2022-11-22T18:51:53.635Z,4.53
2022-11-22T18:54:22.151Z,4.10
2022-11-22T18:56:50.443Z,2.78
2022-11-22T19:01:44.752Z,2.72
2022-11-22T19:04:13.975Z,3.60
2022-11-22T19:06:41.919Z,3.78
2022-11-22T19:09:09.583Z,2.55
2022-11-22T19:11:36.770Z,2.92
2022-11-22T19:14:06.158Z,2.17
2022-11-22T19:16:33.504Z,2.47
2022-11-22T19:19:00.751Z,2.60
2022-11-22T19:21:28.474Z,3.50
2022-11-22T19:23:56.251Z,2.40
2022-11-22T19:26:24.672Z,3.47
2022-11-22T19:28:55.627Z,5.15
2022-11-22T19:31:24.903Z,2.28
2022-11-22T19:33:52.200Z,2.28
2022-11-22T19:36:26.377Z,3.70
2022-11-22T19:38:57.891Z,2.47
2022-11-22T19:41:25.195Z,3.78
2022-11-22T19:43:52.577Z,4.27
2022-11-22T19:46:20.707Z,3.67
2022-11-22T19:51:16.020Z,2.23
2022-11-22T19:53:43.468Z,3.35
2022-11-22T19:56:17.942Z,1.90
2022-11-22T19:58:49.687Z,2.85
2022-11-22T20:01:16.987Z,3.78
2022-11-22T20:03:45.042Z,2.63
2022-11-22T20:08:39.664Z,2.67
2022-11-22T20:11:08.087Z,2.40
2022-11-22T20:13:36.365Z,2.75
2022-11-22T20:16:25.668Z,3.38
2022-11-22T20:19:02.781Z,6.85
2022-11-22T20:21:31.398Z,2.10
2022-11-22T20:23:59.208Z,2.65
2022-11-22T20:26:26.691Z,3.25
2022-11-22T20:28:57.930Z,3.03
2022-11-22T20:31:25.649Z,3.50
2022-11-22T20:33:53.489Z,3.42
2022-11-22T20:36:25.923Z,3.22
2022-11-22T20:38:53.414Z,3.15
2022-11-22T20:41:21.853Z,5.47
2022-11-22T20:43:51.950Z,3.80
2022-11-22T20:46:23.292Z,3.90
2022-11-22T20:48:51.161Z,2.55
2022-11-22T20:51:19.313Z,4.43
2022-11-22T20:56:14.136Z,2.70
2022-11-22T20:58:41.459Z,2.97
2022-11-22T21:01:19.022Z,1.93
2022-11-22T21:03:46.308Z,2.58
2022-11-22T21:06:14.117Z,2.53
2022-11-22T21:08:41.663Z,3.95
2022-11-22T21:11:11.677Z,3.25
2022-11-22T21:13:38.788Z,2.90
2022-11-22T21:16:21.506Z,2.97
2022-11-22T21:18:50.835Z,4.43
2022-11-22T21:21:22.697Z,3.33
2022-11-22T21:23:51.149Z,3.33
2022-11-22T21:26:18.344Z,2.05
2022-11-22T21:28:45.494Z,2.35
2022-11-22T21:31:12.691Z,4.32
2022-11-22T21:33:39.814Z,2.17
2022-11-22T21:36:08.365Z,2.17
2022-11-22T21:38:35.626Z,2.67
2022-11-22T21:41:24.265Z,3.53
2022-11-22T21:43:51.354Z,2.13
2022-11-22T21:46:20.344Z,2.92
2022-11-22T21:48:50.173Z,2.25
2022-11-22T21:51:17.387Z,3.30
2022-11-22T21:53:44.508Z,2.50
2022-11-22T21:56:11.619Z,4.35
2022-11-22T21:58:39.007Z,2.75
2022-11-22T22:01:13.589Z,1.90
2022-11-22T22:03:41.508Z,3.10
2022-11-22T22:06:08.672Z,3.47
2022-11-22T22:08:36.391Z,2.33
2022-11-22T22:11:05.294Z,2.65
2022-11-22T22:13:32.845Z,3.17
2022-11-22T22:16:01.977Z,2.97
2022-11-22T22:18:32.976Z,1.88
2022-11-22T22:21:07.470Z,4.00
2022-11-22T22:23:35.240Z,2.25
2022-11-22T22:26:03.170Z,2.25
2022-11-22T22:28:30.954Z,2.97
2022-11-22T22:31:07.018Z,2.83
2022-11-22T22:33:34.444Z,3.58
2022-11-22T22:36:01.686Z,2.67
2022-11-22T22:38:30.528Z,2.43
2022-11-22T22:40:58.403Z,3.20
2022-11-22T22:43:26.055Z,1.85
2022-11-22T22:45:53.291Z,2.17
2022-11-22T22:48:21.154Z,2.55
2022-11-22T22:50:48.293Z,2.33
2022-11-22T22:53:15.500Z,2.33
2022-11-22T22:55:43.084Z,2.80
2022-11-22T22:58:12.182Z,5.50
2022-11-22T23:00:39.730Z,2.53
2022-11-22T23:03:06.896Z,3.05
2022-11-22T23:05:34.055Z,2.50
2022-11-22T23:08:01.171Z,5.05
2022-11-22T23:10:28.322Z,2.95
2022-11-22T23:12:55.427Z,3.30
2022-11-22T23:15:44.168Z,2.53
2022-11-22T23:18:12.375Z,2.38
2022-11-22T23:20:40.110Z,3.53
2022-11-22T23:23:07.668Z,4.05
2022-11-22T23:25:34.763Z,2.30
2022-11-22T23:28:01.876Z,3.05
2022-11-22T23:30:28.971Z,3.28
2022-11-22T23:32:56.106Z,2.08
2022-11-22T23:35:23.235Z,2.42
2022-11-22T23:37:50.362Z,2.72
2022-11-22T23:40:17.546Z,3.05
2022-11-22T23:42:44.659Z,2.38
2022-11-22T23:45:11.792Z,1.67
2022-11-22T23:47:41.174Z,2.45
2022-11-22T23:50:08.517Z,2.22
2022-11-22T23:52:35.618Z,2.13
2022-11-22T23:55:02.756Z,2.25
2022-11-22T23:57:30.109Z,2.70
2022-11-22T23:59:57.243Z,2.23
